Time;durP1;ratioP1;P1;durP2;ratioP2;P2;SDS_P1;SDS_P2;PMS_P1;PMS_P2;Temp;Humidity;BMP_temperature;BMP_pressure;BME280_temperature;BME280_humidity;BME280_pressure;Samples;Min_cycle;Max_cycle;Signal;HPM_P1;HPM_P2
2023/07/02 00:42:00;;;;;;;9.40;6.40;;;;;;;20.15;56.67;99568.88;105549;1299;78909;-88
2023/07/02 00:45:17;;;;;;;13.70;9.20;;;;;;;20.16;56.68;99564.95;105523;1303;73866;-88
2023/07/02 01:12:30;;;;;;;12.10;8.70;;;;;;;20.15;57.31;99543.32;101845;1299;5004285;-88
2023/07/02 01:26:36;;;;;;;19.00;10.60;;;;;;;20.14;57.61;99532.20;105591;1299;67781;-89
2023/07/02 01:30:22;;;;;;;22.20;12.10;;;;;;;20.13;57.72;99539.06;98051;1299;5003055;-88
2023/07/02 01:34:09;;;;;;;32.00;19.20;;;;;;;20.14;57.80;99537.26;105557;1299;60121;-88
2023/07/02 01:37:55;;;;;;;11.60;6.60;;;;;;;20.11;57.88;99525.00;105523;1299;74479;-88
2023/07/02 01:41:44;;;;;;;7.80;5.20;;;;;;;20.08;58.02;99519.48;105481;1299;68395;-88
2023/07/02 01:45:33;;;;;;;12.50;7.00;;;;;;;20.05;58.04;99523.08;105479;1299;71619;-88
2023/07/02 01:54:32;;;;;;;7.90;4.80;;;;;;;19.87;58.20;99514.24;105499;1299;76127;-90
2023/07/02 05:43:21;;;;;;;2.20;1.50;;;;;;;19.76;64.52;99621.30;105521;1300;59269;-89
2023/07/02 06:20:52;;;;;;;2.10;1.20;;;;;;;20.66;64.22;99653.17;105543;1299;71126;-89
2023/07/02 07:30:08;;;;;;;2.50;1.10;;;;;;;24.16;59.15;99691.23;105331;1298;59585;-86
2023/07/02 07:32:55;;;;;;;2.90;1.30;;;;;;;24.91;58.96;99694.77;105589;1298;59962;-85
2023/07/02 07:39:00;;;;;;;2.50;1.30;;;;;;;27.61;57.67;99689.17;105585;1299;66354;-90
2023/07/02 07:47:50;;;;;;;2.10;1.50;;;;;;;27.90;56.84;99683.88;97565;1295;58997;-86
2023/07/02 07:50:53;;;;;;;2.30;1.40;;;;;;;29.50;54.95;99690.95;105447;1299;73490;-85
2023/07/02 07:53:39;;;;;;;;;;;;;;;31.15;53.87;99699.81;105380;1300;67257;-86
2023/07/02 07:57:05;;;;;;;1.40;1.30;;;;;;;32.96;52.78;99698.73;105392;1299;71255;-86
2023/07/02 08:00:37;;;;;;;4.40;1.50;;;;;;;33.91;52.02;99699.52;105497;1299;59345;-87
2023/07/02 08:04:23;;;;;;;3.00;1.70;;;;;;;34.66;50.96;99703.96;105528;1299;59695;-87
2023/07/02 08:08:09;;;;;;;1.60;1.50;;;;;;;35.17;50.72;99706.09;105576;1299;73543;-87
2023/07/02 08:11:55;;;;;;;2.20;1.80;;;;;;;36.58;50.11;99700.46;105259;1302;68608;-87
2023/07/02 08:15:23;;;;;;;1.80;1.70;;;;;;;38.59;48.50;99712.05;105222;1302;72066;-87
2023/07/02 08:19:08;;;;;;;2.50;1.90;;;;;;;39.62;47.18;99709.20;105215;1302;59165;-87
2023/07/02 08:22:42;;;;;;;2.80;2.10;;;;;;;39.61;46.24;99709.14;105253;1301;59902;-87
2023/07/02 08:26:10;;;;;;;6.60;2.80;;;;;;;40.69;45.00;99708.20;105249;1302;74847;-88
2023/07/02 08:29:36;;;;;;;3.90;1.90;;;;;;;41.05;43.53;99711.89;105269;1302;67490;-87
2023/07/02 08:33:23;;;;;;;3.00;2.40;;;;;;;41.46;42.41;99713.85;105204;1302;71448;-88
2023/07/02 08:36:37;;;;;;;3.70;2.80;;;;;;;41.71;40.95;99718.79;105213;1302;59853;-88
2023/07/02 08:40:04;;;;;;;2.80;2.60;;;;;;;42.09;39.67;99718.18;105307;1302;59341;-89
2023/07/02 08:43:35;;;;;;;6.50;6.00;;;;;;;43.43;39.15;99717.61;105485;1299;73886;-88
2023/07/02 08:46:53;;;;;;;2.30;2.10;;;;;;;43.91;36.97;99720.44;105542;1298;68404;-89
2023/07/02 08:50:38;;;;;;;4.40;2.30;;;;;;;41.75;36.51;99714.83;105554;1299;71423;-91
2023/07/02 08:54:25;;;;;;;2.30;2.20;;;;;;;42.24;34.68;99714.71;105623;1299;58971;-90
2023/07/02 08:58:14;;;;;;;2.10;2.00;;;;;;;42.02;34.63;99714.70;105619;1299;59018;-91
2023/07/02 09:02:11;;;;;;;3.40;2.50;;;;;;;41.86;33.34;99711.35;105552;1299;73325;-91
2023/07/02 09:06:14;;;;;;;5.60;2.20;;;;;;;40.31;32.19;99706.42;105149;1305;67800;-92
2023/07/02 09:09:41;;;;;;;;;;;;;;;37.28;32.28;99700.69;105166;1305;71088;-90
2023/07/02 09:13:28;;;;;;;2.30;2.10;;;;;;;34.78;31.80;99706.65;105134;1304;59036;-91
2023/07/02 09:16:51;;;;;;;1.90;1.70;;;;;;;32.76;31.77;99697.50;105594;1298;59771;-90
2023/07/02 09:35:24;;;;;;;12.60;2.00;;;;;;;27.38;31.18;99704.32;105446;1299;77319;-85
2023/07/02 09:38:31;;;;;;;5.00;2.40;;;;;;;26.87;31.30;99704.91;105370;1299;72330;-86
2023/07/02 09:42:05;;;;;;;3.60;1.40;;;;;;;26.46;31.52;99701.25;105446;1300;59344;-87
2023/07/02 09:45:52;;;;;;;1.80;1.60;;;;;;;26.29;31.69;99708.69;105039;1304;58927;-87
2023/07/02 09:49:39;;;;;;;5.20;2.00;;;;;;;25.98;31.83;99713.26;105055;1304;74625;-87
2023/07/02 09:53:25;;;;;;;3.00;1.70;;;;;;;25.76;32.09;99706.39;105070;1305;67280;-86
2023/07/02 09:57:14;;;;;;;1.70;1.50;;;;;;;25.57;32.37;99701.58;104919;1307;73303;-87
2023/07/02 10:01:00;;;;;;;5.50;1.60;;;;;;;25.39;32.43;99698.34;104843;1307;59285;-87
2023/07/02 10:05:01;;;;;;;2.70;1.60;;;;;;;25.28;32.66;99701.30;104894;1306;59210;-87
2023/07/02 10:08:55;;;;;;;1.70;1.50;;;;;;;25.09;32.94;99701.23;103940;1314;74639;-87
2023/07/02 10:12:42;;;;;;;1.70;1.40;;;;;;;24.99;33.33;99694.96;103377;1322;68878;-87
2023/07/02 10:16:31;;;;;;;3.20;1.50;;;;;;;24.87;33.33;99698.52;103450;1322;73555;-87
2023/07/02 10:20:15;;;;;;;5.20;1.40;;;;;;;24.75;33.48;99699.92;103131;1326;59534;-87
2023/07/02 10:24:03;;;;;;;5.30;1.50;;;;;;;24.71;33.95;99693.20;103271;1322;58988;-87
2023/07/02 10:27:15;;;;;;;1.60;1.50;;;;;;;24.67;34.10;99696.75;103241;1325;74538;-86
2023/07/02 10:31:11;;;;;;;3.10;1.60;;;;;;;24.62;34.34;99700.86;103282;1322;68641;-85
2023/07/02 10:34:58;;;;;;;3.20;1.40;;;;;;;24.60;34.53;99698.91;103241;1322;72593;-85
2023/07/02 10:38:44;;;;;;;2.10;1.40;;;;;;;24.53;34.54;99714.23;103063;1328;59572;-85
2023/07/02 10:42:29;;;;;;;3.80;1.90;;;;;;;24.49;34.71;99709.82;103026;1331;59141;-85
2023/07/02 10:45:52;;;;;;;2.30;1.50;;;;;;;24.48;34.74;99712.94;103614;1318;73706;-85
2023/07/02 10:49:02;;;;;;;2.10;1.80;;;;;;;24.45;34.87;99720.71;103896;1314;68615;-85
2023/07/02 10:52:08;;;;;;;4.30;2.00;;;;;;;24.41;34.96;99712.80;103982;1315;70236;-85
2023/07/02 10:55:23;;;;;;;6.80;2.20;;;;;;;24.35;35.42;99711.79;104035;1314;59328;-85
2023/07/02 10:58:51;;;;;;;2.40;2.00;;;;;;;24.49;35.56;99708.60;104713;1307;60272;-85
2023/07/02 11:02:02;;;;;;;4.70;1.70;;;;;;;24.53;35.48;99702.77;104676;1308;73538;-85
2023/07/02 11:05:13;;;;;;;3.30;1.30;;;;;;;24.49;35.55;99702.79;104678;1307;69149;-85
2023/07/02 11:08:59;;;;;;;1.70;1.40;;;;;;;24.54;35.89;99708.73;104672;1307;71252;-85
2023/07/02 11:12:23;;;;;;;3.40;2.30;;;;;;;24.66;35.94;99704.19;104645;1308;59052;-85
2023/07/02 11:15:52;;;;;;;4.00;2.40;;;;;;;24.75;35.97;99713.44;105243;1301;59345;-85
2023/07/02 11:19:25;;;;;;;2.10;1.70;;;;;;;24.73;35.97;99705.92;105434;1302;73464;-85
2023/07/02 11:23:11;;;;;;;2.50;2.00;;;;;;;24.73;36.13;99706.57;105462;1302;68608;-86
2023/07/02 11:26:57;;;;;;;5.10;1.80;;;;;;;24.70;36.37;99713.08;105450;1302;72618;-85
2023/07/02 11:30:31;;;;;;;6.70;1.80;;;;;;;24.66;36.53;99713.23;105441;1301;59118;-85
2023/07/02 11:34:01;;;;;;;2.20;1.80;;;;;;;24.69;36.59;99705.17;105436;1301;59073;-85
2023/07/02 11:37:08;;;;;;;2.20;1.70;;;;;;;24.82;36.72;99711.42;105420;1301;75080;-85
2023/07/02 11:40:34;;;;;;;2.00;1.80;;;;;;;24.88;36.63;99712.33;105411;1302;69787;-85
2023/07/02 11:44:02;;;;;;;2.30;2.00;;;;;;;24.82;36.75;99717.80;105372;1300;72781;-85
2023/07/02 11:47:48;;;;;;;4.30;1.80;;;;;;;24.68;36.89;99720.95;105257;1303;59480;-86
2023/07/02 11:50:56;;;;;;;4.20;1.70;;;;;;;24.79;37.03;99737.28;105259;1303;60079;-85
2023/07/02 11:54:44;;;;;;;3.90;2.00;;;;;;;24.83;37.11;99738.56;105247;1305;73433;-85
2023/07/02 11:58:32;;;;;;;5.90;2.00;;;;;;;24.67;37.12;99749.58;105316;1304;68473;-87
2023/07/02 12:02:19;;;;;;;3.30;1.70;;;;;;;24.69;37.37;99741.52;105199;1303;73767;-87
2023/07/02 12:06:05;;;;;;;2.80;1.90;;;;;;;24.82;37.59;99746.00;105209;1304;59201;-87
2023/07/02 12:09:51;;;;;;;10.70;2.10;;;;;;;24.83;37.52;99746.80;105265;1304;59097;-86
2023/07/02 12:13:38;;;;;;;3.10;2.10;;;;;;;24.67;37.47;99751.55;105227;1305;73381;-85
2023/07/02 12:17:08;;;;;;;2.60;2.10;;;;;;;24.55;37.70;99749.15;105249;1304;67485;-85
2023/07/02 12:20:35;;;;;;;1.90;1.70;;;;;;;24.51;37.61;99757.56;105436;1302;71095;-85
2023/07/02 12:24:21;;;;;;;2.50;1.60;;;;;;;24.36;37.61;99758.88;105424;1301;59408;-85
2023/07/02 12:28:07;;;;;;;6.60;1.90;;;;;;;24.26;37.71;99753.98;105464;1301;59367;-85
2023/07/02 12:31:34;;;;;;;6.20;2.00;;;;;;;24.20;37.82;99758.34;105408;1301;73328;-85
2023/07/02 12:35:20;;;;;;;5.90;1.80;;;;;;;24.11;37.86;99771.64;105278;1302;66484;-85
2023/07/02 12:39:06;;;;;;;4.40;2.40;;;;;;;23.97;37.84;99769.45;105133;1304;73528;-85
2023/07/02 12:42:34;;;;;;;8.60;1.90;;;;;;;23.86;37.87;99762.71;105111;1304;59137;-85
2023/07/02 12:46:02;;;;;;;3.60;2.50;;;;;;;23.77;37.94;99760.27;105112;1303;59393;-85
2023/07/02 12:49:48;;;;;;;2.60;1.80;;;;;;;23.82;38.11;99767.77;105178;1304;73392;-85
2023/07/02 12:53:34;;;;;;;4.60;2.20;;;;;;;23.80;38.12;99762.90;105171;1305;67408;-86
2023/07/02 12:57:22;;;;;;;6.00;2.30;;;;;;;23.76;38.23;99775.63;105158;1304;72392;-86
2023/07/02 13:01:09;;;;;;;4.20;2.30;;;;;;;23.81;38.23;99782.13;104567;1310;59790;-86
2023/07/02 13:04:56;;;;;;;4.30;2.30;;;;;;;23.79;38.13;99778.09;104557;1310;59430;-85
2023/07/02 13:08:42;;;;;;;7.30;2.10;;;;;;;23.85;38.25;99780.60;104557;1308;73505;-86
2023/07/02 13:12:30;;;;;;;2.40;2.20;;;;;;;23.94;38.12;99782.92;100731;1308;5461171;-87
2023/07/02 13:16:17;;;;;;;2.70;1.90;;;;;;;23.94;38.20;99782.02;104635;1310;72565;-87
2023/07/02 13:20:15;;;;;;;2.90;2.30;;;;;;;23.91;38.21;99784.64;104674;1308;59127;-87
2023/07/02 13:24:03;;;;;;;2.50;2.30;;;;;;;23.87;38.21;99781.79;104250;1313;58939;-87
2023/07/02 13:27:55;;;;;;;4.60;2.30;;;;;;;23.80;38.22;99789.83;103803;1317;72328;-87
2023/07/02 13:31:42;;;;;;;5.30;2.40;;;;;;;23.76;38.36;99791.49;103751;1317;68435;-87
2023/07/02 13:35:31;;;;;;;5.00;2.80;;;;;;;23.73;38.39;99789.48;103816;1317;73578;-87
2023/07/02 13:39:17;;;;;;;7.40;2.40;;;;;;;23.54;38.46;99796.67;104350;1311;58961;-87
2023/07/02 13:43:05;;;;;;;6.20;2.80;;;;;;;23.48;38.50;99792.27;104326;1311;59089;-87
2023/07/02 13:46:52;;;;;;;5.70;2.70;;;;;;;23.50;38.72;99790.30;104313;1311;72822;-87
2023/07/02 13:50:39;;;;;;;8.00;3.60;;;;;;;23.60;38.72;99798.68;104375;1311;66973;-87
2023/07/02 13:54:26;;;;;;;4.10;2.70;;;;;;;23.60;38.71;99796.96;104293;1311;71443;-87
2023/07/02 13:58:19;;;;;;;11.90;4.80;;;;;;;23.59;38.67;99800.15;104011;1316;58948;-87
2023/07/02 14:02:09;;;;;;;5.80;3.00;;;;;;;23.58;38.83;99804.64;103917;1316;59263;-86
2023/07/02 14:05:55;;;;;;;6.30;2.70;;;;;;;23.65;38.82;99802.09;104465;1310;73426;-87
2023/07/02 14:09:42;;;;;;;6.20;3.30;;;;;;;23.62;38.76;99805.03;104446;1310;68622;-86
2023/07/02 14:13:28;;;;;;;9.40;3.50;;;;;;;23.50;38.85;99804.55;104426;1311;72130;-85
2023/07/02 14:17:15;;;;;;;8.20;4.00;;;;;;;23.50;38.89;99807.18;104474;1310;59259;-86
2023/07/02 14:21:02;;;;;;;17.80;4.40;;;;;;;23.48;38.80;99806.30;104457;1310;60310;-86
2023/07/02 14:24:48;;;;;;;5.00;3.40;;;;;;;23.43;38.84;99808.45;104385;1310;74324;-86
2023/07/02 14:28:35;;;;;;;6.60;3.20;;;;;;;23.41;38.79;99814.87;104545;1309;67954;-86
2023/07/02 14:32:22;;;;;;;9.60;4.00;;;;;;;23.34;38.84;99817.33;104795;1308;72588;-86
2023/07/02 14:36:08;;;;;;;6.70;3.50;;;;;;;23.33;38.90;99813.02;104787;1307;58505;-85
2023/07/02 14:39:55;;;;;;;7.60;3.50;;;;;;;23.35;38.88;99816.94;105483;1301;60171;-86
2023/07/02 14:43:41;;;;;;;8.80;4.10;;;;;;;23.35;38.91;99821.33;105480;1302;73302;-86
2023/07/02 14:47:28;;;;;;;6.30;3.80;;;;;;;23.46;39.08;99814.23;105518;1300;69027;-85
2023/07/02 14:51:14;;;;;;;4.00;3.60;;;;;;;23.60;39.01;99818.88;104936;1306;72773;-86
2023/07/02 14:55:01;;;;;;;5.80;3.90;;;;;;;23.60;38.91;99826.27;104981;1305;59036;-86
2023/07/02 14:58:48;;;;;;;6.60;3.80;;;;;;;23.54;38.96;99833.97;105025;1305;59614;-86
2023/07/02 15:02:34;;;;;;;5.00;3.90;;;;;;;23.47;39.03;99835.05;104900;1306;73462;-86
2023/07/02 15:06:19;;;;;;;10.20;3.90;;;;;;;23.40;39.07;99838.50;104989;1305;67154;-86
2023/07/02 15:09:59;;;;;;;12.60;5.30;;;;;;;23.38;39.08;99840.05;105528;1300;71318;-85
2023/07/02 15:13:45;;;;;;;7.00;4.60;;;;;;;23.36;39.10;99839.17;105537;1299;59057;-85
2023/07/02 15:17:32;;;;;;;8.80;4.20;;;;;;;23.38;39.18;99834.90;105556;1299;59106;-86
2023/07/02 15:21:19;;;;;;;5.40;3.60;;;;;;;23.49;39.22;99833.40;105555;1299;74545;-86
2023/07/02 15:25:05;;;;;;;7.00;4.20;;;;;;;23.51;39.45;99818.89;105560;1298;67480;-86
2023/07/02 15:28:52;;;;;;;4.90;3.90;;;;;;;23.58;39.32;99822.08;105179;1303;73060;-86
2023/07/02 15:32:38;;;;;;;9.00;4.60;;;;;;;23.52;39.23;99830.44;105146;1304;59071;-86
2023/07/02 15:36:25;;;;;;;14.90;4.90;;;;;;;23.33;39.18;99829.89;105174;1304;59106;-85
2023/07/02 15:40:12;;;;;;;9.50;5.30;;;;;;;23.13;39.05;99834.87;105175;1304;73384;-85
2023/07/02 15:44:03;;;;;;;13.90;5.60;;;;;;;22.97;39.17;99840.42;105225;1304;68134;-85
2023/07/02 15:47:45;;;;;;;7.90;4.20;;;;;;;22.90;39.32;99849.42;104340;1311;72811;-86
2023/07/02 15:51:36;;;;;;;7.40;4.30;;;;;;;22.97;39.32;99849.87;104402;1311;59055;-85
2023/07/02 15:55:18;;;;;;;11.00;4.50;;;;;;;23.06;39.54;99855.80;104421;1311;59597;-85
2023/07/02 15:59:17;;;;;;;;;;;;;;;;;;;;;
2023/07/02 16:02:51;;;;;;;9.60;4.10;;;;;;;23.09;39.51;99850.81;104318;1311;67474;-85
2023/07/02 16:06:37;;;;;;;11.70;4.50;;;;;;;23.09;39.60;99852.23;104816;1307;72348;-86
2023/07/02 16:10:24;;;;;;;13.50;4.80;;;;;;;23.05;39.41;99847.67;104843;1307;59352;-87
2023/07/02 16:14:18;;;;;;;8.80;5.40;;;;;;;22.94;39.37;99858.70;104881;1308;59128;-87
2023/07/02 16:18:02;;;;;;;10.50;4.90;;;;;;;22.83;39.36;99855.62;104887;1306;72630;-87
2023/07/02 16:21:50;;;;;;;11.80;5.40;;;;;;;22.83;39.35;99852.24;103994;1317;69780;-87
2023/07/02 16:25:38;;;;;;;13.80;5.70;;;;;;;22.85;39.33;99861.44;104459;1311;72452;-87
2023/07/02 16:29:28;;;;;;;16.20;5.40;;;;;;;22.77;39.31;99870.65;104164;1314;58936;-87
2023/07/02 16:33:14;;;;;;;11.50;5.10;;;;;;;22.71;39.31;99877.95;104173;1313;59747;-87
2023/07/02 16:37:01;;;;;;;12.60;5.00;;;;;;;22.79;39.23;99871.59;104214;1313;73228;-86
2023/07/02 16:40:48;;;;;;;16.40;6.40;;;;;;;22.79;38.99;99877.68;104178;1314;68664;-87
2023/07/02 16:44:37;;;;;;;12.90;5.40;;;;;;;22.68;38.84;99874.52;104162;1314;71410;-86
2023/07/02 16:48:24;;;;;;;10.20;5.40;;;;;;;22.53;38.68;99879.55;104255;1313;59295;-87
2023/07/02 16:52:11;;;;;;;10.80;5.90;;;;;;;22.43;38.54;99880.48;104154;1313;60025;-87
2023/07/02 16:55:58;;;;;;;24.70;6.80;;;;;;;22.37;38.54;99891.13;104224;1313;73420;-86
2023/07/02 16:59:44;;;;;;;11.80;5.40;;;;;;;22.34;38.34;99898.39;105146;1302;67464;-87
2023/07/02 17:03:33;;;;;;;11.00;4.90;;;;;;;22.36;38.43;99897.67;105452;1301;72319;-87
2023/07/02 17:07:29;;;;;;;8.50;5.70;;;;;;;22.42;38.36;99899.48;105448;1301;59002;-87
2023/07/02 17:11:16;;;;;;;13.40;6.30;;;;;;;22.45;38.25;99901.20;105465;1300;60073;-86
2023/07/02 17:15:03;;;;;;;16.20;6.30;;;;;;;22.45;38.24;99902.80;105471;1301;73277;-86
2023/07/02 17:18:52;;;;;;;11.70;5.50;;;;;;;22.41;38.21;99898.17;104929;1308;67591;-87
2023/07/02 17:22:38;;;;;;;9.50;5.70;;;;;;;22.35;38.16;99902.00;104902;1308;72465;-86
2023/07/02 17:26:25;;;;;;;9.10;5.50;;;;;;;22.30;38.06;99910.86;104941;1308;59111;-87
2023/07/02 17:30:14;;;;;;;9.70;5.50;;;;;;;22.25;38.22;99912.45;104968;1307;60233;-87
2023/07/02 17:34:00;;;;;;;9.60;4.60;;;;;;;22.20;38.00;99913.02;104268;1314;74940;-86
2023/07/02 17:37:47;;;;;;;10.40;5.80;;;;;;;22.16;38.02;99916.09;104215;1313;66304;-87
2023/07/02 17:41:34;;;;;;;14.40;5.70;;;;;;;22.13;37.89;99916.67;103588;1318;72483;-87
2023/07/02 17:45:20;;;;;;;12.20;5.90;;;;;;;22.15;37.95;99922.68;103631;1319;59315;-86
2023/07/02 17:49:07;;;;;;;12.90;5.80;;;;;;;22.15;37.89;99924.63;103577;1320;59079;-86
2023/07/02 17:52:23;;;;;;;15.80;5.90;;;;;;;22.13;38.09;99930.17;103626;1319;74529;-85
2023/07/02 17:55:13;;;;;;;15.40;5.60;;;;;;;22.10;37.98;99930.77;99825;1314;5156977;-85
2023/07/02 17:58:00;;;;;;;;;;;;;;;22.04;38.12;99931.92;103854;1316;73071;-84
2023/07/02 18:00:47;;;;;;;;;;;;;;;21.99;38.10;99936.12;103973;1314;59247;-85
2023/07/02 18:03:33;;;;;;;6.40;4.80;;;;;;;21.95;38.15;99936.62;103932;1314;60051;-85
2023/07/02 18:06:22;;;;;;;10.70;5.00;;;;;;;21.89;38.07;99932.67;103971;1316;73463;-84
2023/07/02 18:09:19;;;;;;;14.80;5.80;;;;;;;21.83;38.17;99936.96;104093;1308;67812;-84
2023/07/02 18:12:08;;;;;;;11.30;5.80;;;;;;;21.78;37.93;99944.91;104450;1308;72641;-85
2023/07/02 18:15:04;;;;;;;12.50;5.80;;;;;;;21.68;37.92;99944.73;104461;1308;59317;-85
2023/07/02 18:17:51;;;;;;;10.30;5.80;;;;;;;21.60;37.91;99946.02;104935;1301;60225;-85
2023/07/02 18:20:37;;;;;;;15.50;7.00;;;;;;;21.55;37.90;99945.23;105283;1302;73490;-85
2023/07/02 18:23:24;;;;;;;10.90;5.80;;;;;;;21.50;37.77;99949.40;105230;1302;68610;-84
2023/07/02 18:26:10;;;;;;;14.20;5.70;;;;;;;21.43;37.81;99951.45;105307;1302;72487;-84
2023/07/02 18:28:57;;;;;;;14.00;5.90;;;;;;;21.38;37.86;99958.13;105276;1301;59823;-85
2023/07/02 18:31:43;;;;;;;8.30;5.80;;;;;;;21.35;37.84;99960.98;105206;1302;59610;-84
2023/07/02 18:34:33;;;;;;;11.50;6.00;;;;;;;21.30;37.89;99961.73;105278;1301;74487;-85
2023/07/02 18:37:23;;;;;;;9.50;5.60;;;;;;;21.27;38.03;99967.73;105201;1301;67296;-84
2023/07/02 18:40:11;;;;;;;8.70;5.60;;;;;;;21.24;38.02;99973.02;105304;1302;71267;-84
2023/07/02 18:42:57;;;;;;;9.70;5.90;;;;;;;21.19;38.08;99972.13;105270;1299;59320;-84
2023/07/02 18:45:50;;;;;;;9.90;6.10;;;;;;;21.13;38.04;99972.48;105394;1302;59043;-85
2023/07/02 18:49:18;;;;;;;12.90;6.80;;;;;;;21.09;38.16;99976.64;104615;1291;613280;-84
2023/07/02 18:52:18;;;;;;;14.80;7.10;;;;;;;21.02;38.22;99983.12;104891;1293;59141;-84
2023/07/02 18:55:10;;;;;;;12.50;7.20;;;;;;;20.95;38.26;99981.66;104980;1294;59334;-86
2023/07/02 18:58:16;;;;;;;17.00;7.40;;;;;;;20.88;38.33;99984.83;104740;1294;70918;-84
2023/07/02 19:01:16;;;;;;;11.40;7.30;;;;;;;20.78;38.37;99988.63;104873;1294;67366;-84
2023/07/02 19:04:06;;;;;;;10.00;7.40;;;;;;;20.72;38.57;99993.27;104441;1290;70724;-84
2023/07/02 19:06:57;;;;;;;10.30;6.50;;;;;;;20.66;38.57;99997.70;105895;1289;59173;-85
2023/07/02 19:09:44;;;;;;;10.50;5.80;;;;;;;20.59;38.72;99999.77;105145;1289;59721;-84
2023/07/02 19:12:32;;;;;;;10.00;5.80;;;;;;;20.52;38.55;100004.05;105490;1289;70910;-84
2023/07/02 19:15:18;;;;;;;10.30;5.80;;;;;;;20.41;38.76;100010.72;105283;1289;68573;-84
2023/07/02 19:18:06;;;;;;;;;;;;;;;20.32;38.64;100013.60;105274;1287;74004;-84
2023/07/02 19:20:59;;;;;;;12.90;6.00;;;;;;;20.22;38.90;100016.55;105856;1291;59549;-84
2023/07/02 19:23:45;;;;;;;11.30;6.20;;;;;;;20.14;38.85;100023.54;105571;1287;60269;-84
2023/07/02 19:26:31;;;;;;;9.00;6.20;;;;;;;20.06;38.76;100020.90;105295;1291;74318;-84
2023/07/02 19:29:20;;;;;;;18.40;9.30;;;;;;;19.96;38.95;100026.27;105263;1288;67433;-84
2023/07/02 19:32:08;;;;;;;23.60;11.50;;;;;;;19.89;38.95;100026.60;105422;1289;74000;-84
2023/07/02 19:34:56;;;;;;;29.80;12.00;;;;;;;19.81;39.03;100029.69;105352;1286;59058;-84
2023/07/02 19:37:52;;;;;;;28.40;13.50;;;;;;;19.74;39.11;100027.01;105275;1286;62511;-84
2023/07/02 19:40:39;;;;;;;26.80;12.30;;;;;;;19.68;39.10;100035.82;105365;1288;73145;-84
2023/07/02 19:43:27;;;;;;;24.20;11.40;;;;;;;19.63;39.21;100041.05;105269;1291;66316;-84
2023/07/02 19:46:14;;;;;;;29.30;12.30;;;;;;;19.57;39.27;100046.45;105332;1290;71313;-84
2023/07/02 19:49:01;;;;;;;27.60;11.40;;;;;;;19.52;39.32;100049.59;105481;1287;57686;-84
2023/07/02 19:51:49;;;;;;;21.90;10.30;;;;;;;19.44;39.29;100050.73;105368;1288;60633;-84
2023/07/02 19:54:40;;;;;;;22.40;9.80;;;;;;;19.40;39.43;100055.91;105339;1287;71671;-83
2023/07/02 19:57:28;;;;;;;27.20;10.90;;;;;;;19.33;39.52;100058.08;105409;1288;66608;-84
2023/07/02 20:00:14;;;;;;;20.80;10.30;;;;;;;19.27;39.52;100063.69;105238;1288;71387;-83
2023/07/02 20:03:00;;;;;;;16.50;9.20;;;;;;;19.21;39.59;100069.17;105083;1287;59772;-84
2023/07/02 20:05:48;;;;;;;17.10;7.60;;;;;;;19.17;39.80;100070.25;105275;1287;59480;-84
2023/07/02 20:08:36;;;;;;;12.60;7.20;;;;;;;19.14;39.86;100074.27;106270;1288;70696;-84
2023/07/02 20:11:24;;;;;;;;;;;;;;;19.07;39.86;100075.76;105727;1288;67389;-84
2023/07/02 20:14:10;;;;;;;10.50;5.70;;;;;;;19.00;39.96;100079.30;106241;1288;71475;-84
2023/07/02 20:16:57;;;;;;;12.50;5.80;;;;;;;18.95;40.02;100080.51;105434;1287;59670;-84
2023/07/02 20:19:49;;;;;;;16.10;6.40;;;;;;;18.85;40.17;100082.09;105332;1288;59719;-84
2023/07/02 20:22:37;;;;;;;15.90;6.60;;;;;;;18.79;40.21;100086.63;105191;1288;75752;-84
2023/07/02 20:25:43;;;;;;;11.30;6.40;;;;;;;18.77;40.37;100086.96;105277;1288;68538;-85
2023/07/02 20:28:31;;;;;;;12.10;6.30;;;;;;;18.73;40.39;100089.14;105237;1288;71260;-84
2023/07/02 20:31:17;;;;;;;8.00;5.50;;;;;;;18.67;40.49;100090.36;105262;1288;59698;-84
2023/07/02 20:34:03;;;;;;;9.70;6.40;;;;;;;18.62;40.57;100085.92;105192;1288;59579;-84
2023/07/02 20:36:54;;;;;;;9.20;5.60;;;;;;;18.55;40.60;100087.70;105296;1288;74317;-83
2023/07/02 20:39:47;;;;;;;9.80;5.90;;;;;;;18.53;40.70;100087.83;105344;1287;67296;-84
2023/07/02 20:42:34;;;;;;;11.70;5.90;;;;;;;18.49;40.80;100089.06;106152;1287;72640;-84
2023/07/02 20:45:23;;;;;;;9.90;5.70;;;;;;;18.48;40.86;100092.83;105399;1292;61025;-84
2023/07/02 20:48:12;;;;;;;12.50;6.00;;;;;;;18.45;40.92;100091.59;105127;1288;59350;-84
2023/07/02 20:51:02;;;;;;;10.40;6.10;;;;;;;18.40;41.12;100093.27;105304;1290;71655;-84
2023/07/02 20:53:49;;;;;;;12.50;5.80;;;;;;;18.34;41.15;100097.45;105225;1288;67493;-83
2023/07/02 20:56:35;;;;;;;11.10;5.60;;;;;;;18.28;41.28;100098.66;105433;1287;73388;-84
2023/07/02 20:59:21;;;;;;;10.20;5.90;;;;;;;18.26;41.33;100100.69;105284;1288;59139;-84
2023/07/02 21:02:18;;;;;;;7.90;5.80;;;;;;;18.23;41.40;100102.46;105217;1287;61643;-84
2023/07/02 21:05:04;;;;;;;12.30;5.80;;;;;;;18.20;41.45;100106.60;105309;1287;72409;-84
2023/07/02 21:07:50;;;;;;;;;;;;;;;18.16;41.58;100108.06;105260;1288;69019;-84
2023/07/02 21:10:40;;;;;;;8.50;5.50;;;;;;;18.11;41.76;100113.42;105354;1288;71243;-84
2023/07/02 21:13:26;;;;;;;12.40;5.90;;;;;;;18.06;41.81;100112.80;105196;1287;57812;-84
2023/07/02 21:16:13;;;;;;;;;;;;;;;18.01;41.88;100113.79;105357;1287;60050;-84
2023/07/02 21:19:00;;;;;;;14.10;6.10;;;;;;;17.97;41.95;100112.30;105262;1288;76192;-84
2023/07/02 21:21:49;;;;;;;14.00;6.90;;;;;;;17.91;42.13;100112.09;105252;1288;67206;-84
2023/07/02 21:24:35;;;;;;;11.30;6.40;;;;;;;17.84;42.15;100115.39;105197;1288;75840;-84
2023/07/02 21:27:23;;;;;;;;;;;;;;;17.79;42.21;100115.86;105154;1289;59602;-84
2023/07/02 21:30:11;;;;;;;15.10;5.50;;;;;;;17.75;42.35;100119.39;105329;1288;59682;-84
2023/07/02 21:33:01;;;;;;;12.70;5.50;;;;;;;17.72;42.39;100119.71;105365;1287;73639;-83
2023/07/02 21:35:49;;;;;;;11.80;5.60;;;;;;;17.66;42.54;100118.45;106344;1287;68642;-85
2023/07/02 21:38:37;;;;;;;10.40;5.20;;;;;;;17.58;42.59;100122.05;105425;1288;70964;-84
2023/07/02 21:41:25;;;;;;;10.20;6.20;;;;;;;17.48;42.59;100123.74;105249;1288;59597;-83
2023/07/02 21:44:11;;;;;;;12.30;6.30;;;;;;;17.44;42.85;100122.61;105424;1288;58849;-83
2023/07/02 21:46:58;;;;;;;11.80;7.30;;;;;;;17.37;42.92;100120.36;105228;1288;71636;-83
2023/07/02 21:49:44;;;;;;;13.90;6.50;;;;;;;17.30;42.99;100123.34;105173;1288;67146;-83
2023/07/02 21:52:32;;;;;;;;;;;;;;;17.29;43.14;100121.32;105272;1288;72051;-83
2023/07/02 21:55:19;;;;;;;8.90;5.30;;;;;;;17.25;43.18;100125.86;105385;1288;59510;-84
2023/07/02 21:58:06;;;;;;;12.00;5.80;;;;;;;17.15;43.19;100127.23;105301;1288;59661;-83
2023/07/02 22:00:54;;;;;;;14.40;6.20;;;;;;;17.11;43.35;100128.85;105308;1287;74355;-84
2023/07/02 22:03:40;;;;;;;9.90;5.70;;;;;;;17.07;43.43;100131.85;105440;1288;71676;-83
2023/07/02 22:06:26;;;;;;;12.10;6.70;;;;;;;17.06;43.63;100134.16;105497;1288;71376;-84
2023/07/02 22:09:12;;;;;;;13.60;6.70;;;;;;;17.08;43.71;100137.02;105341;1287;59739;-83
2023/07/02 22:11:58;;;;;;;9.60;6.20;;;;;;;17.09;43.71;100135.91;105235;1288;59546;-83
2023/07/02 22:14:45;;;;;;;15.60;5.90;;;;;;;17.08;43.74;100138.56;105300;1288;74360;-83
2023/07/02 22:17:31;;;;;;;8.90;5.70;;;;;;;17.06;43.85;100141.13;105132;1287;67363;-83
2023/07/02 22:20:19;;;;;;;9.10;5.40;;;;;;;17.07;43.91;100146.84;105209;1288;73996;-84
2023/07/02 22:23:07;;;;;;;10.90;5.20;;;;;;;17.07;44.00;100145.44;105261;1290;59163;-84
2023/07/02 22:25:54;;;;;;;11.30;6.10;;;;;;;17.05;44.09;100148.66;105311;1287;59534;-83
2023/07/02 22:28:40;;;;;;;8.90;5.50;;;;;;;17.00;44.11;100148.22;105230;1288;71550;-84
2023/07/02 22:31:27;;;;;;;11.50;5.90;;;;;;;16.98;44.28;100150.22;105246;1288;67295;-84
2023/07/02 22:34:13;;;;;;;;;;;;;;;16.96;44.34;100152.39;105195;1288;72139;-84
2023/07/02 22:36:59;;;;;;;17.00;5.30;;;;;;;16.92;44.38;100150.02;105291;1287;59680;-84
2023/07/02 22:39:46;;;;;;;16.00;5.80;;;;;;;16.86;44.51;100149.94;105398;1288;59542;-83